In Rescue
 
Open Full Screen Window  High Contrast Mode
Wind Gusting 00 knots
15
April 20, 2024 8:25 AM CDT
Weather Information
Wind Direction
  300 °
Wind Speed
  15 kt (17 mph)
Wind Gust
  00 kt (0 mph)
Altimeter
30.32 in
Visibility
10 SM
Temperature
-00° C
32° F
Dewpoint
-03° C
27° F
Humidity
80%
Sky Condition
Clear
VFR

METAR KFFM 201325Z AUTO 30015KT 10SM CLR M00/M03 A3032 RMK AO2

FAA Disclaimer: The data displayed is for advisory purposes only and is not to be used for flight planning or operations.